Surface/Precipitation History
10/25/2014 03:28  to  10/26/2014 03:28
Change End Date:
Date/Time
(MDT)
Sf
Temp Chem Water Layer Surface Precipitation
Sf Sub Frz Factor Pct Depth IcePct Cond Salin Type Intens Accum Rate
10/26/2014 03:21 Dry 44.6F 49F - - - - - 0 mhos 0 None None 0.01 in 0.0 iph
10/26/2014 03:15 Dry 44.2F 49F - - - - - 0 mhos 0 None None 0.01 in 0.0 iph
10/26/2014 03:10 Dry 43.9F 49F - - - - - 0 mhos 1 None None 0.01 in 0.0 iph
10/26/2014 03:05 Dry 43.7F 49F - - - - - 0 mhos 2 None None 0.01 in 0.0 iph
10/26/2014 02:55 Dry 43.0F 49F - - - - - 0 mhos 2 None None 0.01 in 0.0 iph
10/26/2014 02:51 Dry 42.6F 49F - - - - - 0 mhos 2 None None 0.01 in 0.0 iph
10/26/2014 02:45 Dry 42.1F 49F - - - - - 0 mhos 3 None None 0.01 in 0.0 iph
10/26/2014 02:40 Dry 41.2F 49F - - - - - 0 mhos 4 None None 0.01 in 0.0 iph
10/26/2014 02:35 Wet 41.4F 49F 32F 5 0% 0.00 in 0% 0 mhos 5 None None 0.01 in 0.0 iph
10/26/2014 02:25 Wet 42.1F 49F 32F 5 0% 0.00 in 0% 0 mhos 6 Rain Slight 0.01 in 0.0 iph
10/26/2014 02:21 Wet 42.3F 49F 32F 5 0% 0.00 in 0% 0 mhos 6 Rain Slight 0.01 in 0.0 iph
10/26/2014 02:15 Wet 42.3F 49F 32F 5 0% 0.00 in 0% 0 mhos 6 Rain Slight 0.01 in 0.0 iph
10/26/2014 02:10 Dry 42.1F 49F - - - - - 0 mhos 7 None None 0.01 in 0.0 iph
10/26/2014 02:05 Wet 42.3F 49F 32F 5 0% 0.00 in 0% 0 mhos 8 None None 0.01 in 0.0 iph
10/26/2014 01:55 Wet 42.8F 49F 32F 5 0% 0.00 in 0% 0 mhos 8 Rain Slight 0.01 in 0.0 iph
Date/Time
(MDT)
Sf
Temp Chem Water Layer Surface Precipitation
Sf Sub Frz Factor Pct Depth IcePct Cond Salin Type Intens Accum Rate
10/26/2014 01:51 Wet 43.0F 49F 32F 5 0% 0.00 in 0% 0 mhos 8 Rain Slight 0.01 in 0.0 iph
10/26/2014 01:45 Wet 43.5F 49F 32F 5 0% 0.00 in 0% 0 mhos 6 Rain Slight 0.02 in 0.0 iph
10/26/2014 01:41 Wet 43.9F 49F 32F 5 0% 0.00 in 0% 0 mhos 1 Rain Slight 0.02 in 0.0 iph
10/26/2014 01:35 Dry 44.6F 49F - - - - - 0 mhos 1 Rain Slight 0.02 in 0.0 iph
10/26/2014 01:25 Dry 44.6F 49F - - - - - 0 mhos 0 Rain Slight 0.02 in 0.0 iph
10/26/2014 01:21 Dry 44.6F 49F - - - - - 0 mhos 0 Rain Slight 0.02 in 0.0 iph
10/26/2014 01:15 Dry 45.9F 49F - - - - - 0 mhos 0 None None 0.02 in 0.0 iph
10/26/2014 01:10 Dry 46.2F 49F - - - - - 0 mhos 0 None None 0.02 in 0.0 iph
10/26/2014 01:05 Dry 46.2F 49F - - - - - 0 mhos 0 None None 0.02 in 0.0 iph
10/26/2014 00:55 Dry 45.9F 50F - - - - - 0 mhos 0 None None 0.02 in 0.0 iph
10/26/2014 00:51 Dry 45.7F 50F - - - - - 0 mhos 0 None None 0.02 in 0.0 iph
10/26/2014 00:45 Dry 45.7F 50F - - - - - 0 mhos 1 None None 0.02 in 0.0 iph
10/26/2014 00:40 Dry 45.1F 50F - - - - - 0 mhos 2 None None 0.02 in 0.0 iph
10/26/2014 00:34 Dry 44.8F 50F - - - - - 0 mhos 1 None None 0.02 in 0.0 iph
10/26/2014 00:24 Dry 44.4F 50F - - - - - 0 mhos 2 None None 0.02 in 0.0 iph
Date/Time
(MDT)
Sf
Temp Chem Water Layer Surface Precipitation
Sf Sub Frz Factor Pct Depth IcePct Cond Salin Type Intens Accum Rate
10/26/2014 00:22 Dry 44.2F 50F - - - - - 0 mhos 2 None None 0.02 in 0.0 iph
10/26/2014 00:14 Dry 44.2F 50F - - - - - 0 mhos 2 None None 0.02 in 0.0 iph
10/26/2014 00:11 Dry 44.2F 50F - - - - - 0 mhos 2 None None 0.02 in 0.0 iph
10/26/2014 00:04 Dry 44.1F 50F - - - - - 0 mhos 3 None None 0.02 in 0.0 iph
10/25/2014 23:57 Dry 43.7F 50F - - - - - 0 mhos 3 None None 0.02 in 0.0 iph
10/25/2014 23:54 Dry 43.5F 50F - - - - - 0 mhos 4 None None 0.02 in 0.0 iph
10/25/2014 23:44 Dry 43.5F 50F - - - - - 0 mhos 4 None None 0.02 in 0.0 iph
10/25/2014 23:40 Dry 43.3F 50F - - - - - 0 mhos 4 None None 0.02 in 0.0 iph
10/25/2014 23:34 Dry 43.0F 50F - - - - - 0 mhos 5 None None 0.02 in 0.0 iph
10/25/2014 23:24 Dry 42.3F 50F - - - - - 0 mhos 6 None None 0.02 in 0.0 iph
10/25/2014 23:21 Dry 42.1F 50F - - - - - 0 mhos 6 None None 0.02 in 0.0 iph
10/25/2014 23:14 Dry 41.7F 50F - - - - - 0 mhos 7 None None 0.02 in 0.0 iph
10/25/2014 23:10 Dry 41.7F 50F - - - - - 0 mhos 7 None None 0.02 in 0.0 iph
10/25/2014 23:04 Dry 41.0F 50F - - - - - 0 mhos 8 None None 0.02 in 0.0 iph
10/25/2014 22:54 Dry 40.5F 50F - - - - - 0 mhos 9 None None 0.02 in 0.0 iph
Date/Time
(MDT)
Sf
Temp Chem Water Layer Surface Precipitation
Sf Sub Frz Factor Pct Depth IcePct Cond Salin Type Intens Accum Rate
10/25/2014 22:51 Dry 40.5F 50F - - - - - 0 mhos 9 None None 0.02 in 0.0 iph
10/25/2014 22:44 Dry 40.5F 50F - - - - - 0 mhos 9 None None 0.02 in 0.0 iph
10/25/2014 22:41 Dry 40.3F 50F - - - - - 0 mhos 10 None None 0.02 in 0.0 iph
10/25/2014 22:34 Wet 40.5F 50F 32F 5 0% 0.00 in 0% 0 mhos 11 None None 0.02 in 0.0 iph
10/25/2014 22:24 Wet 40.5F 50F 32F 5 0% 0.00 in 0% 0 mhos 11 None None 0.02 in 0.0 iph
10/25/2014 22:21 Wet 40.5F 50F 32F 5 0% 0.00 in 0% 0 mhos 12 None None 0.02 in 0.0 iph
10/25/2014 22:14 Wet 40.5F 50F 32F 5 0% 0.00 in 0% 0 mhos 12 None None 0.02 in 0.0 iph
10/25/2014 22:11 Wet 40.5F 50F 32F 5 0% 0.00 in 0% 0 mhos 12 None None 0.02 in 0.0 iph
10/25/2014 22:04 Wet 40.6F 50F 32F 5 0% 0.00 in 0% 0 mhos 12 None None 0.02 in 0.0 iph
10/25/2014 21:54 Wet 41.2F 50F 32F 5 0% 0.00 in 0% 0 mhos 11 None None 0.02 in 0.0 iph
10/25/2014 21:51 Wet 41.2F 50F 32F 5 0% 0.00 in 0% 0 mhos 11 None None 0.02 in 0.0 iph
10/25/2014 21:44 Wet 41.5F 50F 32F 5 0% 0.00 in 0% 0 mhos 11 None None 0.02 in 0.0 iph
10/25/2014 21:41 Wet 41.5F 50F 32F 5 0% 0.00 in 0% 0 mhos 11 None None 0.02 in 0.0 iph
10/25/2014 21:34 Wet 41.9F 50F 32F 5 0% 0.00 in 0% 0 mhos 11 None None 0.02 in 0.0 iph
10/25/2014 21:24 Wet 42.4F 50F 32F 5 0% 0.00 in 0% 0 mhos 12 None None 0.02 in 0.0 iph
Date/Time
(MDT)
Sf
Temp Chem Water Layer Surface Precipitation
Sf Sub Frz Factor Pct Depth IcePct Cond Salin Type Intens Accum Rate
10/25/2014 21:21 Wet 42.4F 50F 32F 5 0% 0.00 in 0% 0 mhos 12 None None 0.02 in 0.0 iph
10/25/2014 21:14 Wet 42.8F 49F 32F 5 0% 0.00 in 0% 0 mhos 12 None None 0.02 in 0.0 iph
10/25/2014 21:11 Wet 43.0F 49F 32F 5 0% 0.00 in 0% 0 mhos 12 None None 0.02 in 0.0 iph
10/25/2014 21:04 Wet 43.0F 49F 32F 5 0% 0.00 in 0% 0 mhos 11 None None 0.02 in 0.0 iph
10/25/2014 20:54 Wet 43.7F 49F 32F 5 0% 0.00 in 0% 0 mhos 11 None None 0.02 in 0.0 iph
10/25/2014 20:51 Wet 43.9F 49F 32F 5 0% 0.00 in 0% 0 mhos 11 None None 0.02 in 0.0 iph
10/25/2014 20:44 Wet 44.1F 49F 32F 5 0% 0.00 in 0% 0 mhos 11 None None 0.02 in 0.0 iph
10/25/2014 20:41 Wet 44.1F 49F 32F 5 0% 0.00 in 0% 0 mhos 11 None None 0.02 in 0.0 iph
10/25/2014 20:34 Wet 44.8F 49F 32F 5 0% 0.00 in 0% 0 mhos 11 None None 0.02 in 0.0 iph
10/25/2014 20:23 Wet 45.9F 49F 32F 5 0% 0.00 in 0% 0 mhos 7 Rain Slight 0.02 in 0.0 iph
10/25/2014 20:21 Wet 46.0F 49F 32F 5 0% 0.00 in 0% 0 mhos 5 Rain Slight 0.02 in 0.1 iph
10/25/2014 20:13 Wet 46.4F 49F 32F 5 0% 0.00 in 0% 0 mhos 1 Rain Slight 0.01 in 0.0 iph
10/25/2014 20:11 Wet 46.6F 49F 32F 5 0% 0.00 in 0% 0 mhos 1 Rain Slight 0.01 in 0.0 iph
10/25/2014 20:03 Wet 47.3F 49F 32F 5 0% 0.00 in 0% 0 mhos 1 Rain Slight 0.01 in 0.0 iph
10/25/2014 19:53 Dry 48.2F 49F - - - - - 0 mhos 0 None None 0.01 in 0.0 iph
Date/Time
(MDT)
Sf
Temp Chem Water Layer Surface Precipitation
Sf Sub Frz Factor Pct Depth IcePct Cond Salin Type Intens Accum Rate
10/25/2014 19:51 Dry 48.0F 49F - - - - - 0 mhos 0 None None 0.01 in 0.0 iph
10/25/2014 19:43 Dry 46.4F 49F - - - - - 0 mhos 0 Rain Slight 0.01 in 0.0 iph
10/25/2014 19:41 Dry 45.9F 49F - - - - - 0 mhos 0 Rain Slight 0.01 in 0.0 iph
10/25/2014 19:33 Dry 45.7F 49F - - - - - 0 mhos 0 None None 0.01 in 0.0 iph
10/25/2014 19:23 Dry 45.5F 49F - - - - - 0 mhos 0 None None 0.01 in 0.0 iph
10/25/2014 19:21 Dry 45.5F 49F - - - - - 0 mhos 0 None None 0.01 in 0.0 iph
10/25/2014 19:13 Dry 45.7F 49F - - - - - 0 mhos 0 None None 0.01 in 0.0 iph
10/25/2014 19:11 Dry 45.7F 49F - - - - - 0 mhos 0 None None 0.01 in 0.0 iph
10/25/2014 19:03 Dry 45.7F 49F - - - - - 0 mhos 0 None None 0.01 in 0.0 iph
10/25/2014 18:53 Dry 45.7F 49F - - - - - 0 mhos 0 None None 0.01 in 0.0 iph
10/25/2014 18:51 Dry 46.0F 49F - - - - - 0 mhos 0 None None 0.01 in 0.0 iph
10/25/2014 18:43 Dry 46.8F 49F - - - - - 0 mhos 0 None None 0.01 in 0.0 iph
10/25/2014 18:40 Dry 46.8F 49F - - - - - 0 mhos 0 None None 0.01 in 0.0 iph
10/25/2014 18:33 Dry 46.8F 49F - - - - - 0 mhos 0 None None 0.01 in 0.0 iph
10/25/2014 18:23 Dry 46.8F 49F - - - - - 0 mhos 0 None None 0.01 in 0.0 iph
Date/Time
(MDT)
Sf
Temp Chem Water Layer Surface Precipitation
Sf Sub Frz Factor Pct Depth IcePct Cond Salin Type Intens Accum Rate
10/25/2014 18:21 Dry 46.9F 49F - - - - - 0 mhos 0 None None 0.01 in 0.0 iph
10/25/2014 18:13 Dry 46.9F 49F - - - - - 0 mhos 0 None None 0.01 in 0.0 iph
10/25/2014 18:10 Dry 46.9F 49F - - - - - 0 mhos 0 None None 0.01 in 0.0 iph
10/25/2014 18:03 Dry 47.1F 49F - - - - - 0 mhos 0 None None 0.01 in 0.0 iph
10/25/2014 17:53 Dry 48.2F 49F - - - - - 0 mhos 0 None None 0.01 in 0.0 iph
10/25/2014 17:51 Dry 48.2F 49F - - - - - 0 mhos 0 None None 0.01 in 0.0 iph
10/25/2014 17:43 Dry 49.5F 49F - - - - - 0 mhos 0 None None 0.01 in 0.0 iph
10/25/2014 17:41 Dry 49.5F 49F - - - - - 0 mhos 0 None None 0.01 in 0.0 iph
10/25/2014 17:33 Dry 51.1F 49F - - - - - 0 mhos 0 None None 0.01 in 0.0 iph
10/25/2014 17:23 Dry 52.7F 49F - - - - - 0 mhos 0 None None 0.01 in 0.0 iph
10/25/2014 17:21 Dry 52.9F 49F - - - - - 0 mhos 0 None None 0.01 in 0.0 iph
10/25/2014 17:13 Dry 53.6F 49F - - - - - 0 mhos 0 None None 0.01 in 0.0 iph
10/25/2014 17:10 Dry 53.8F 49F - - - - - 0 mhos 0 None None 0.01 in 0.0 iph
10/25/2014 17:03 Dry 54.3F 49F - - - - - 0 mhos 0 None None 0.01 in 0.0 iph
10/25/2014 16:53 Dry 54.3F 49F - - - - - 0 mhos 0 None None 0.01 in 0.0 iph
Date/Time
(MDT)
Sf
Temp Chem Water Layer Surface Precipitation
Sf Sub Frz Factor Pct Depth IcePct Cond Salin Type Intens Accum Rate
10/25/2014 16:51 Dry 54.3F 49F - - - - - 0 mhos 0 None None 0.01 in 0.0 iph
10/25/2014 16:43 Dry 54.0F 49F - - - - - 0 mhos 0 None None 0.01 in 0.0 iph
10/25/2014 16:41 Dry 53.8F 49F - - - - - 0 mhos 0 None None 0.01 in 0.0 iph
10/25/2014 16:32 Dry 54.5F 49F - - - - - 0 mhos 0 None None 0.01 in 0.0 iph
10/25/2014 16:22 Dry 54.1F 49F - - - - - 0 mhos 0 None None 0.01 in 0.0 iph
10/25/2014 16:21 Dry 54.0F 49F - - - - - 0 mhos 0 None None 0.01 in 0.0 iph
10/25/2014 16:12 Dry 53.2F 49F - - - - - 0 mhos 0 None None 0.01 in 0.0 iph
10/25/2014 16:10 Dry 53.2F 49F - - - - - 0 mhos 0 None None 0.01 in 0.0 iph
10/25/2014 16:02 Dry 53.2F 48F - - - - - 0 mhos 0 None None 0.01 in 0.0 iph
10/25/2014 15:52 Dry 53.4F 48F - - - - - 0 mhos 0 None None 0.01 in 0.0 iph
10/25/2014 15:51 Dry 53.4F 48F - - - - - 0 mhos 0 None None 0.01 in 0.0 iph
10/25/2014 15:42 Dry 53.8F 48F - - - - - 0 mhos 0 None None 0.01 in 0.0 iph
10/25/2014 15:41 Dry 53.8F 48F - - - - - 0 mhos 0 None None 0.01 in 0.0 iph
10/25/2014 15:32 Dry 54.0F 48F - - - - - 0 mhos 0 None None 0.01 in 0.0 iph
10/25/2014 15:22 Dry 53.8F 48F - - - - - 0 mhos 0 None None 0.01 in 0.0 iph
Date/Time
(MDT)
Sf
Temp Chem Water Layer Surface Precipitation
Sf Sub Frz Factor Pct Depth IcePct Cond Salin Type Intens Accum Rate
10/25/2014 15:21 Dry 53.8F 48F - - - - - 0 mhos 0 None None 0.01 in 0.0 iph
10/25/2014 15:12 Dry 53.6F 48F - - - - - 0 mhos 0 None None 0.01 in 0.0 iph
10/25/2014 15:02 Dry 53.6F 48F - - - - - 0 mhos 0 None None 0.01 in 0.0 iph
10/25/2014 15:02 Dry 53.6F 48F - - - - - 0 mhos 0 None None 0.01 in 0.0 iph
10/25/2014 14:52 Dry 53.8F 48F - - - - - 0 mhos 0 None None 0.01 in 0.0 iph
10/25/2014 14:43 Dry 53.8F 48F - - - - - 0 mhos 0 None None 0.01 in 0.0 iph
10/25/2014 14:42 Dry 53.8F 48F - - - - - 0 mhos 0 None None 0.01 in 0.0 iph
10/25/2014 14:32 Dry 54.0F 48F - - - - - 0 mhos 0 None None 0.01 in 0.0 iph
10/25/2014 14:22 Dry 54.1F 48F - - - - - 0 mhos 0 None None 0.01 in 0.0 iph
10/25/2014 14:21 Dry 54.1F 48F - - - - - 0 mhos 0 None None 0.01 in 0.0 iph
10/25/2014 14:12 Dry 53.8F 48F - - - - - 0 mhos 0 None None 0.01 in 0.0 iph
10/25/2014 14:11 Dry 53.6F 48F - - - - - 0 mhos 0 None None 0.01 in 0.0 iph
10/25/2014 14:02 Dry 54.0F 48F - - - - - 0 mhos 0 None None 0.01 in 0.0 iph
10/25/2014 13:52 Dry 54.3F 48F - - - - - 0 mhos 0 None None 0.01 in 0.0 iph
10/25/2014 13:51 Dry 54.3F 48F - - - - - 0 mhos 0 None None 0.01 in 0.0 iph
Date/Time
(MDT)
Sf
Temp Chem Water Layer Surface Precipitation
Sf Sub Frz Factor Pct Depth IcePct Cond Salin Type Intens Accum Rate
10/25/2014 13:42 Dry 54.5F 48F - - - - - 0 mhos 0 None None 0.01 in 0.0 iph
10/25/2014 13:41 Dry 54.5F 48F - - - - - 0 mhos 0 None None 0.01 in 0.0 iph
10/25/2014 13:32 Dry 54.5F 48F - - - - - 0 mhos 0 None None 0.01 in 0.0 iph
10/25/2014 13:24 Dry 54.7F 48F - - - - - 0 mhos 0 None None 0.01 in 0.0 iph
10/25/2014 13:22 Dry 54.9F 48F - - - - - 0 mhos 0 None None 0.01 in 0.0 iph
10/25/2014 13:12 Dry 54.7F 48F - - - - - 0 mhos 0 None None 0.01 in 0.0 iph
10/25/2014 13:11 Dry 54.7F 48F - - - - - 0 mhos 0 None None 0.01 in 0.0 iph
10/25/2014 13:02 Dry 55.2F 48F - - - - - 0 mhos 0 None None 0.01 in 0.0 iph
10/25/2014 12:51 Dry 55.4F 48F - - - - - 0 mhos 0 None None 0.01 in 0.0 iph
10/25/2014 12:51 Dry 55.4F 48F - - - - - 0 mhos 0 None None 0.01 in 0.0 iph
10/25/2014 12:41 Dry 55.8F 48F - - - - - 0 mhos 0 None None 0.01 in 0.0 iph
10/25/2014 12:41 Dry 55.8F 48F - - - - - 0 mhos 0 None None 0.01 in 0.0 iph
10/25/2014 12:31 Dry 56.1F 48F - - - - - 0 mhos 0 None None 0.01 in 0.0 iph
10/25/2014 12:21 Dry 56.3F 48F - - - - - 0 mhos 0 None None 0.01 in 0.0 iph
10/25/2014 12:11 Dry 54.7F 48F - - - - - 0 mhos 0 None None 0.01 in 0.0 iph
Date/Time
(MDT)
Sf
Temp Chem Water Layer Surface Precipitation
Sf Sub Frz Factor Pct Depth IcePct Cond Salin Type Intens Accum Rate
10/25/2014 12:11 Dry 54.7F 48F - - - - - 0 mhos 0 None None 0.01 in 0.0 iph
10/25/2014 12:01 Dry 54.1F 48F - - - - - 0 mhos 0 None None 0.01 in 0.0 iph
10/25/2014 11:57 Dry 54.1F 48F - - - - - 0 mhos 0 None None 0.01 in 0.0 iph
10/25/2014 11:51 Dry 53.1F 48F - - - - - 0 mhos 0 None None 0.01 in 0.0 iph
10/25/2014 11:41 Dry 52.0F 48F - - - - - 0 mhos 1 None None 0.01 in 0.0 iph
10/25/2014 11:41 Dry 52.0F 48F - - - - - 0 mhos 1 None None 0.01 in 0.0 iph
10/25/2014 11:31 Dry 53.1F 48F - - - - - 0 mhos 1 None None 0.01 in 0.0 iph
10/25/2014 11:22 Dry 52.9F 48F - - - - - 0 mhos 1 None None 0.01 in 0.0 iph
10/25/2014 11:21 Dry 53.2F 48F - - - - - 0 mhos 1 None None 0.01 in 0.0 iph
10/25/2014 11:11 Dry 50.4F 48F - - - - - 0 mhos 1 None None 0.01 in 0.0 iph
10/25/2014 11:11 Dry 50.4F 48F - - - - - 0 mhos 1 None None 0.01 in 0.0 iph
10/25/2014 11:01 Dry 46.8F 48F - - - - - 0 mhos 1 None None 0.01 in 0.0 iph
10/25/2014 10:53 Dry 45.7F 48F - - - - - 0 mhos 2 None None 0.01 in 0.0 iph
10/25/2014 10:51 Dry 46.2F 48F - - - - - 0 mhos 2 None None 0.01 in 0.0 iph
10/25/2014 10:41 Dry 44.4F 48F - - - - - 0 mhos 3 None None 0.01 in 0.0 iph
Date/Time
(MDT)
Sf
Temp Chem Water Layer Surface Precipitation
Sf Sub Frz Factor Pct Depth IcePct Cond Salin Type Intens Accum Rate
10/25/2014 10:41 Dry 44.4F 48F - - - - - 0 mhos 3 None None 0.01 in 0.0 iph
10/25/2014 10:31 Dry 41.2F 48F - - - - - 0 mhos 4 None None 0.01 in 0.0 iph
10/25/2014 10:21 Dry 40.5F 48F - - - - - 0 mhos 4 None None 0.01 in 0.0 iph
10/25/2014 10:21 Dry 40.5F 48F - - - - - 0 mhos 4 None None 0.01 in 0.0 iph
10/25/2014 10:11 Dry 39.9F 48F - - - - - 0 mhos 5 None None 0.01 in 0.0 iph
10/25/2014 10:11 Dry 39.9F 49F - - - - - 0 mhos 5 None None 0.01 in 0.0 iph
10/25/2014 10:01 Dry 39.4F 49F - - - - - 0 mhos 5 None None 0.01 in 0.0 iph
10/25/2014 09:51 Wet 39.4F 49F 32F 5 0% 0.00 in 0% 0 mhos 6 None None 0.01 in 0.0 iph
10/25/2014 09:41 Wet 39.4F 49F 32F 5 0% 0.00 in 0% 0 mhos 6 None None 0.01 in 0.0 iph
10/25/2014 09:41 Wet 39.4F 49F 32F 5 0% 0.00 in 0% 0 mhos 6 None None 0.01 in 0.0 iph
10/25/2014 09:31 Wet 39.0F 49F 32F 5 0% 0.00 in 0% 0 mhos 7 None None 0.01 in 0.0 iph
10/25/2014 09:21 Wet 37.4F 49F 32F 5 0% 0.00 in 0% 0 mhos 8 None None 0.01 in 0.0 iph
10/25/2014 09:21 Wet 37.4F 49F 32F 5 0% 0.00 in 0% 0 mhos 8 None None 0.01 in 0.0 iph
10/25/2014 09:11 Wet 36.7F 49F 32F 5 0% 0.00 in 0% 0 mhos 9 None None 0.01 in 0.0 iph
10/25/2014 09:10 Wet 36.7F 49F 32F 5 0% 0.00 in 0% 0 mhos 9 None None 0.01 in 0.0 iph
Date/Time
(MDT)
Sf
Temp Chem Water Layer Surface Precipitation
Sf Sub Frz Factor Pct Depth IcePct Cond Salin Type Intens Accum Rate
10/25/2014 09:00 Wet 36.0F 49F 32F 5 0% 0.00 in 0% 0 mhos 9 None None 0.01 in 0.0 iph
10/25/2014 08:51 Wet 35.2F 49F 32F 5 0% 0.00 in 0% 0 mhos 10 None None 0.01 in 0.0 iph
10/25/2014 08:50 Wet 35.2F 49F 32F 5 0% 0.00 in 0% 0 mhos 10 None None 0.01 in 0.0 iph
10/25/2014 08:41 Wet 34.7F 49F 32F 5 0% 0.00 in 0% 0 mhos 10 None None 0.01 in 0.0 iph
10/25/2014 08:40 Wet 34.7F 49F 32F 5 0% 0.00 in 0% 0 mhos 10 None None 0.01 in 0.0 iph
10/25/2014 08:30 Wet 34.3F 49F 32F 5 0% 0.00 in 0% 0 mhos 11 None None 0.01 in 0.0 iph
10/25/2014 08:21 Wet 34.3F 49F 32F 5 0% 0.00 in 0% 0 mhos 10 None None 0.01 in 0.0 iph
10/25/2014 08:20 Wet 34.3F 49F 32F 5 0% 0.00 in 0% 0 mhos 11 None None 0.01 in 0.0 iph
10/25/2014 08:11 Wet 34.5F 49F 32F 5 0% 0.00 in 0% 0 mhos 12 None None 0.01 in 0.0 iph
10/25/2014 08:10 Wet 34.3F 49F 32F 5 0% 0.00 in 0% 0 mhos 12 None None 0.01 in 0.0 iph
10/25/2014 08:00 Wet 34.2F 49F 32F 5 0% 0.00 in 0% 0 mhos 11 None None 0.01 in 0.0 iph
10/25/2014 07:51 Wet 34.3F 49F 32F 5 0% 0.00 in 0% 0 mhos 11 None None 0.01 in 0.0 iph
10/25/2014 07:50 Wet 34.5F 49F 32F 5 0% 0.00 in 0% 0 mhos 11 None None 0.01 in 0.0 iph
10/25/2014 07:41 Wet 34.5F 49F 32F 5 0% 0.00 in 0% 0 mhos 11 None None 0.01 in 0.0 iph
10/25/2014 07:40 Wet 34.5F 49F 32F 5 0% 0.00 in 0% 0 mhos 11 None None 0.01 in 0.0 iph
Date/Time
(MDT)
Sf
Temp Chem Water Layer Surface Precipitation
Sf Sub Frz Factor Pct Depth IcePct Cond Salin Type Intens Accum Rate
10/25/2014 07:30 Wet 35.1F 49F 32F 5 0% 0.00 in 0% 0 mhos 11 None None 0.01 in 0.0 iph
10/25/2014 07:23 Wet 35.1F 49F 32F 5 0% 0.00 in 0% 0 mhos 11 None None 0.01 in 0.0 iph
10/25/2014 07:20 Wet 35.1F 49F 32F 5 0% 0.00 in 0% 0 mhos 11 None None 0.01 in 0.0 iph
10/25/2014 07:11 Wet 35.2F 49F 32F 5 0% 0.00 in 0% 0 mhos 11 None None 0.01 in 0.0 iph
10/25/2014 07:10 Wet 35.2F 49F 32F 5 0% 0.00 in 0% 0 mhos 11 None None 0.01 in 0.0 iph
10/25/2014 07:00 Wet 35.4F 49F 32F 5 0% 0.00 in 0% 0 mhos 11 None None 0.01 in 0.0 iph
10/25/2014 06:51 Wet 35.4F 49F 32F 5 0% 0.00 in 0% 0 mhos 11 None None 0.01 in 0.0 iph
10/25/2014 06:50 Wet 35.4F 49F 32F 5 0% 0.00 in 0% 0 mhos 11 None None 0.01 in 0.0 iph
10/25/2014 06:41 Wet 35.6F 49F 32F 5 0% 0.00 in 0% 0 mhos 11 None None 0.01 in 0.0 iph
10/25/2014 06:40 Wet 35.6F 49F 32F 5 0% 0.00 in 0% 0 mhos 11 None None 0.01 in 0.0 iph
10/25/2014 06:30 Wet 35.8F 49F 32F 5 0% 0.00 in 0% 0 mhos 11 None None 0.01 in 0.0 iph
10/25/2014 06:21 Wet 36.1F 49F 32F 5 0% 0.00 in 0% 0 mhos 11 None None 0.01 in 0.0 iph
10/25/2014 06:20 Wet 36.1F 49F 32F 5 0% 0.00 in 0% 0 mhos 11 None None 0.01 in 0.0 iph
10/25/2014 06:11 Wet 36.1F 49F 32F 5 0% 0.00 in 0% 0 mhos 11 None None 0.01 in 0.0 iph
10/25/2014 06:10 Wet 36.1F 49F 32F 5 0% 0.00 in 0% 0 mhos 11 None None 0.01 in 0.0 iph
Date/Time
(MDT)
Sf
Temp Chem Water Layer Surface Precipitation
Sf Sub Frz Factor Pct Depth IcePct Cond Salin Type Intens Accum Rate
10/25/2014 06:00 Wet 36.3F 49F 32F 5 0% 0.00 in 0% 0 mhos 11 None None 0.01 in 0.0 iph
10/25/2014 05:51 Wet 36.5F 49F 32F 5 0% 0.00 in 0% 0 mhos 10 None None 0.01 in 0.0 iph
10/25/2014 05:50 Wet 36.5F 49F 32F 5 0% 0.00 in 0% 0 mhos 10 None None 0.01 in 0.0 iph
10/25/2014 05:40 Wet 36.7F 49F 32F 5 0% 0.00 in 0% 0 mhos 10 None None 0.01 in 0.0 iph
10/25/2014 05:40 Wet 36.7F 49F 32F 5 0% 0.00 in 0% 0 mhos 10 None None 0.01 in 0.0 iph
10/25/2014 05:30 Wet 36.7F 49F 32F 5 0% 0.00 in 0% 0 mhos 10 None None 0.01 in 0.0 iph
10/25/2014 05:21 Wet 36.9F 49F 32F 5 0% 0.00 in 0% 0 mhos 10 None None 0.01 in 0.0 iph
10/25/2014 05:20 Wet 36.7F 49F 32F 5 0% 0.00 in 0% 0 mhos 10 None None 0.01 in 0.0 iph
10/25/2014 05:10 Wet 36.7F 49F 32F 5 0% 0.00 in 0% 0 mhos 10 None None 0.01 in 0.0 iph
10/25/2014 05:10 Wet 36.7F 49F 32F 5 0% 0.00 in 0% 0 mhos 10 None None 0.01 in 0.0 iph
10/25/2014 04:59 Wet 36.9F 49F 32F 5 0% 0.00 in 0% 0 mhos 9 None None 0.01 in 0.0 iph
10/25/2014 04:51 Wet 36.9F 49F 32F 5 0% 0.00 in 0% 0 mhos 9 None None 0.01 in 0.0 iph
10/25/2014 04:49 Wet 36.9F 49F 32F 5 0% 0.00 in 0% 0 mhos 9 None None 0.01 in 0.0 iph
10/25/2014 04:41 Wet 36.9F 49F 32F 5 0% 0.00 in 0% 0 mhos 9 None None 0.02 in 0.0 iph
10/25/2014 04:39 Wet 36.9F 49F 32F 5 0% 0.00 in 0% 0 mhos 9 None None 0.02 in 0.0 iph
Date/Time
(MDT)
Sf
Temp Chem Water Layer Surface Precipitation
Sf Sub Frz Factor Pct Depth IcePct Cond Salin Type Intens Accum Rate
10/25/2014 04:29 Wet 37.0F 49F 32F 5 0% 0.00 in 0% 0 mhos 9 None None 0.02 in 0.0 iph
10/25/2014 04:21 Wet 37.2F 49F 32F 5 0% 0.00 in 0% 0 mhos 9 None None 0.02 in 0.0 iph
10/25/2014 04:19 Wet 37.2F 49F 32F 5 0% 0.00 in 0% 0 mhos 9 None None 0.02 in 0.0 iph
10/25/2014 04:10 Wet 37.6F 49F 32F 5 0% 0.00 in 0% 0 mhos 9 None None 0.02 in 0.0 iph
10/25/2014 04:09 Wet 37.6F 49F 32F 5 0% 0.00 in 0% 0 mhos 9 None None 0.02 in 0.0 iph
10/25/2014 03:59 Wet 38.5F 49F 32F 5 0% 0.00 in 0% 0 mhos 9 None None 0.02 in 0.0 iph
10/25/2014 03:51 Wet 39.4F 49F 32F 5 0% 0.00 in 0% 0 mhos 9 None None 0.02 in 0.0 iph
10/25/2014 03:49 Wet 39.6F 49F 32F 5 0% 0.00 in 0% 0 mhos 9 None None 0.02 in 0.0 iph
10/25/2014 03:41 Wet 39.9F 49F 32F 5 0% 0.00 in 0% 0 mhos 8 None None 0.02 in 0.0 iph
10/25/2014 03:39 Wet 39.9F 49F 32F 5 0% 0.00 in 0% 0 mhos 8 None None 0.02 in 0.0 iph
10/25/2014 03:29 Wet 39.9F 49F 32F 5 0% 0.00 in 0% 0 mhos 7 None None 0.02 in 0.0 iph
Change End Date:
Copyright © 1998-2005 Surface Systems, Inc.
All Rights Reserved
Send comments about the data to:
SCAN Web ® is a registered trademark of Surface Systems, Inc.
SCAN Web Version 5.6